Time;durP1;ratioP1;P1;durP2;ratioP2;P2;SDS_P1;SDS_P2;PMS_P1;PMS_P2;Temp;Humidity;BMP_temperature;BMP_pressure;BME280_temperature;BME280_humidity;BME280_pressure;Samples;Min_cycle;Max_cycle;Signal;HPM_P1;HPM_P2
2023/08/17 00:00:17;;;;;;;6.43;1.17;;;19.90;81.10;;;;;;5034415;28;20021;-75
2023/08/17 00:02:43;;;;;;;5.70;0.80;;;19.90;81.00;;;;;;5018316;28;20061;-85
2023/08/17 00:05:09;;;;;;;4.03;0.70;;;19.90;81.60;;;;;;5034581;28;20060;-83
2023/08/17 00:07:35;;;;;;;3.55;0.80;;;19.90;81.00;;;;;;5018262;28;20088;-84
2023/08/17 00:10:01;;;;;;;3.40;0.70;;;19.90;81.00;;;;;;5035292;28;20033;-84
2023/08/17 00:12:26;;;;;;;3.92;1.00;;;19.90;80.80;;;;;;5001552;28;20021;-76
2023/08/17 00:14:53;;;;;;;4.65;1.33;;;19.90;81.00;;;;;;5035607;28;20383;-76
2023/08/17 00:17:18;;;;;;;2.80;0.90;;;19.90;80.90;;;;;;5017654;28;20026;-77
2023/08/17 00:19:44;;;;;;;4.72;0.90;;;19.90;80.80;;;;;;5001236;28;20033;-76
2023/08/17 00:22:10;;;;;;;2.67;0.70;;;19.90;80.60;;;;;;5033840;28;20131;-76
2023/08/17 00:24:35;;;;;;;4.05;0.80;;;19.90;80.60;;;;;;5001094;28;20029;-76
2023/08/17 00:27:01;;;;;;;2.88;1.30;;;19.90;80.80;;;;;;5017612;28;20519;-76
2023/08/17 00:29:27;;;;;;;3.08;0.98;;;19.90;81.10;;;;;;5017508;28;20461;-76
2023/08/17 00:31:52;;;;;;;1.90;0.70;;;19.90;81.00;;;;;;5017492;28;20030;-76
2023/08/17 00:34:18;;;;;;;3.15;0.82;;;19.90;81.30;;;;;;5000643;28;20021;-85
2023/08/17 00:36:44;;;;;;;5.30;1.30;;;19.80;81.40;;;;;;5033810;28;20033;-84
2023/08/17 00:39:10;;;;;;;6.57;1.15;;;19.80;81.80;;;;;;5017467;28;20104;-84
2023/08/17 00:41:36;;;;;;;4.03;0.80;;;19.80;82.10;;;;;;5035085;28;20659;-85
2023/08/17 00:44:02;;;;;;;3.05;0.52;;;19.80;82.20;;;;;;5000996;28;20129;-84
2023/08/17 00:46:28;;;;;;;3.55;1.02;;;19.70;82.00;;;;;;5017135;28;20022;-85
2023/08/17 00:48:55;;;;;;;2.85;0.95;;;19.70;82.50;;;;;;5033444;28;20064;-76
2023/08/17 00:51:23;;;;;;;2.53;0.70;;;19.70;82.70;;;;;;5033475;28;20128;-77
2023/08/17 00:53:54;;;;;;;4.75;1.00;;;19.60;83.20;;;;;;5034547;28;20029;-78
2023/08/17 00:56:21;;;;;;;5.13;0.90;;;19.60;83.50;;;;;;5033342;28;20377;-77
2023/08/17 00:58:46;;;;;;;5.03;0.95;;;19.50;83.30;;;;;;5033262;28;20022;-77
2023/08/17 01:01:12;;;;;;;6.30;1.40;;;19.50;83.50;;;;;;5000467;28;20037;-77
2023/08/17 01:03:41;;;;;;;3.90;1.05;;;19.50;84.40;;;;;;5016875;28;20477;-79
2023/08/17 01:06:07;;;;;;;5.65;1.10;;;19.40;84.80;;;;;;5033139;28;20036;-76
2023/08/17 01:08:33;;;;;;;4.15;0.90;;;19.40;84.90;;;;;;5033162;28;20382;-77
2023/08/17 01:11:06;;;;;;;4.43;1.00;;;19.30;85.50;;;;;;5000280;28;20018;-76
2023/08/17 01:13:44;;;;;;;4.75;1.10;;;19.30;85.00;;;;;;5033397;28;20060;-76
2023/08/17 01:16:15;;;;;;;3.28;0.90;;;19.30;85.30;;;;;;5034242;28;20014;-77
2023/08/17 01:18:43;;;;;;;4.90;0.80;;;19.30;85.20;;;;;;5034083;28;20100;-77
2023/08/17 01:21:13;;;;;;;6.90;1.20;;;19.30;85.40;;;;;;5033989;28;20025;-76
2023/08/17 01:23:39;;;;;;;2.55;0.93;;;19.30;85.60;;;;;;5032855;28;20037;-84
2023/08/17 01:26:04;;;;;;;3.97;1.25;;;19.20;85.80;;;;;;5000111;28;20404;-76
2023/08/17 01:28:30;;;;;;;3.22;0.95;;;19.20;85.80;;;;;;4999865;28;20029;-76
2023/08/17 01:31:02;;;;;;;5.30;1.00;;;19.20;85.90;;;;;;5016627;28;20021;-76
2023/08/17 01:33:35;;;;;;;5.00;1.20;;;19.10;85.90;;;;;;5032546;28;20029;-76
2023/08/17 01:36:04;;;;;;;3.63;1.00;;;19.10;86.00;;;;;;5033993;28;20022;-76
2023/08/17 01:38:31;;;;;;;3.42;0.80;;;19.10;86.30;;;;;;5033882;28;20075;-76
2023/08/17 01:40:58;;;;;;;3.83;1.17;;;19.10;86.00;;;;;;5032566;28;20017;-76
2023/08/17 01:43:24;;;;;;;4.78;1.10;;;19.00;86.30;;;;;;5016134;28;20013;-76
2023/08/17 01:45:50;;;;;;;6.00;1.25;;;19.00;86.20;;;;;;5015211;28;20037;-76
2023/08/17 01:48:15;;;;;;;4.78;1.48;;;19.00;86.40;;;;;;5033655;28;20087;-78
2023/08/17 01:50:41;;;;;;;3.47;0.88;;;19.00;86.60;;;;;;4999680;28;20033;-78
2023/08/17 01:53:08;;;;;;;4.63;1.08;;;19.00;86.80;;;;;;4999538;28;20502;-78
2023/08/17 01:55:35;;;;;;;4.80;0.85;;;19.00;86.60;;;;;;5016170;28;20060;-78
2023/08/17 01:58:01;;;;;;;7.18;1.38;;;18.90;86.70;;;;;;4999810;28;20064;-78
2023/08/17 02:00:26;;;;;;;6.65;1.60;;;18.90;86.80;;;;;;5015897;28;20045;-78
2023/08/17 02:02:52;;;;;;;6.18;1.60;;;18.90;87.00;;;;;;5015939;28;20029;-77
2023/08/17 02:05:18;;;;;;;3.97;1.00;;;18.90;87.10;;;;;;5015893;28;20496;-78
2023/08/17 02:07:43;;;;;;;7.28;1.08;;;18.90;87.20;;;;;;4999425;28;20409;-76
2023/08/17 02:10:09;;;;;;;4.95;1.30;;;18.90;87.20;;;;;;5015700;28;20036;-76
2023/08/17 02:12:35;;;;;;;5.13;1.73;;;18.80;87.20;;;;;;5015858;28;20033;-76
2023/08/17 02:15:00;;;;;;;3.03;1.05;;;18.80;87.40;;;;;;5032295;28;20072;-76
2023/08/17 02:17:26;;;;;;;4.72;1.20;;;18.80;87.20;;;;;;5033360;28;20084;-76
2023/08/17 02:19:52;;;;;;;4.03;1.00;;;18.80;87.50;;;;;;5015808;28;20037;-76
2023/08/17 02:22:18;;;;;;;5.30;1.40;;;18.70;87.30;;;;;;4999222;28;20036;-76
2023/08/17 02:24:43;;;;;;;3.45;1.08;;;18.70;87.40;;;;;;5015493;28;20039;-76
2023/08/17 02:27:09;;;;;;;4.28;1.55;;;18.70;87.60;;;;;;5015684;28;20115;-76
2023/08/17 02:29:35;;;;;;;4.82;0.93;;;18.60;87.40;;;;;;5033209;28;20037;-76
2023/08/17 02:32:01;;;;;;;7.90;1.20;;;18.60;87.60;;;;;;4999425;28;20071;-76
2023/08/17 02:34:26;;;;;;;4.20;1.17;;;18.60;87.60;;;;;;5031933;28;20025;-76
2023/08/17 02:36:52;;;;;;;4.82;1.08;;;18.60;87.60;;;;;;5015568;28;20107;-76
2023/08/17 02:39:18;;;;;;;4.40;1.00;;;18.60;87.60;;;;;;5031895;28;20030;-76
2023/08/17 02:41:44;;;;;;;5.68;1.20;;;18.60;87.80;;;;;;5015431;28;20026;-76
2023/08/17 02:44:10;;;;;;;7.75;1.10;;;18.60;87.70;;;;;;5031805;28;20083;-76
2023/08/17 02:46:36;;;;;;;6.35;1.10;;;18.60;87.60;;;;;;5015391;28;20112;-76
2023/08/17 02:49:02;;;;;;;2.58;0.75;;;18.60;87.80;;;;;;5032937;28;20385;-76
2023/08/17 02:51:27;;;;;;;2.67;0.88;;;18.60;87.50;;;;;;5028343;28;20554;-75
2023/08/17 02:53:54;;;;;;;5.53;1.15;;;18.60;87.70;;;;;;4996107;28;20030;-76
2023/08/17 02:56:19;;;;;;;7.75;0.88;;;18.50;87.70;;;;;;5012084;28;20037;-76
2023/08/17 02:58:45;;;;;;;5.28;0.82;;;18.50;87.50;;;;;;4999688;28;20034;-76
2023/08/17 03:01:10;;;;;;;4.32;1.10;;;18.50;87.40;;;;;;4999421;28;20072;-78
2023/08/17 03:03:36;;;;;;;6.30;1.10;;;18.50;87.50;;;;;;5015635;28;20474;-76
2023/08/17 03:06:03;;;;;;;5.72;1.30;;;18.50;87.50;;;;;;5016114;28;20053;-76
2023/08/17 03:08:28;;;;;;;3.97;1.20;;;18.40;87.50;;;;;;5016771;28;20018;-78
2023/08/17 03:10:54;;;;;;;2.97;0.90;;;18.40;87.60;;;;;;5015633;28;20056;-76
2023/08/17 03:13:20;;;;;;;5.28;0.82;;;18.40;87.40;;;;;;4999124;28;20080;-75
2023/08/17 03:15:46;;;;;;;3.80;0.80;;;18.40;87.40;;;;;;5015491;28;20489;-75
2023/08/17 03:18:11;;;;;;;4.20;0.80;;;18.40;87.50;;;;;;5016792;28;20057;-76
2023/08/17 03:20:37;;;;;;;4.45;0.90;;;18.40;87.50;;;;;;4998923;28;20457;-76
2023/08/17 03:23:06;;;;;;;3.05;0.90;;;18.40;87.50;;;;;;5015576;28;20053;-76
2023/08/17 03:25:32;;;;;;;5.18;0.85;;;18.40;87.50;;;;;;5016863;28;20102;-76
2023/08/17 03:27:57;;;;;;;6.25;1.10;;;18.40;87.80;;;;;;5015119;28;20038;-76
2023/08/17 03:30:23;;;;;;;5.95;1.17;;;18.40;87.80;;;;;;5015304;28;20037;-76
2023/08/17 03:32:48;;;;;;;8.02;1.38;;;18.30;87.80;;;;;;4998652;28;20125;-75
2023/08/17 03:35:14;;;;;;;9.23;1.08;;;18.30;87.80;;;;;;5015091;28;20021;-78
2023/08/17 03:37:39;;;;;;;5.47;1.15;;;18.20;87.70;;;;;;5014967;28;20033;-78
2023/08/17 03:40:06;;;;;;;4.35;1.00;;;18.30;88.00;;;;;;5016229;28;20108;-78
2023/08/17 03:42:31;;;;;;;4.75;1.27;;;18.20;87.90;;;;;;5016158;28;20021;-78
2023/08/17 03:44:57;;;;;;;2.75;0.80;;;18.10;88.00;;;;;;4998526;28;20032;-78
2023/08/17 03:47:23;;;;;;;4.32;1.35;;;18.10;87.80;;;;;;4998605;28;20026;-78
2023/08/17 03:49:48;;;;;;;5.00;1.13;;;18.00;88.40;;;;;;4998400;28;20034;-78
2023/08/17 03:52:14;;;;;;;4.38;1.20;;;18.00;88.30;;;;;;5014533;28;20125;-78
2023/08/17 03:54:40;;;;;;;3.50;0.95;;;17.90;88.70;;;;;;5014648;28;20037;-78
2023/08/17 03:57:05;;;;;;;5.22;1.25;;;17.90;88.40;;;;;;5014739;28;20041;-77
2023/08/17 03:59:31;;;;;;;4.45;1.23;;;17.80;88.50;;;;;;4998359;28;20040;-76
2023/08/17 04:01:57;;;;;;;4.15;1.10;;;17.80;88.80;;;;;;4998327;28;20037;-76
2023/08/17 04:04:22;;;;;;;4.78;1.20;;;17.80;89.20;;;;;;4998342;28;20037;-76
2023/08/17 04:06:48;;;;;;;6.13;1.10;;;17.70;88.90;;;;;;5014571;28;20072;-76
2023/08/17 04:09:13;;;;;;;3.83;1.35;;;17.70;89.10;;;;;;4997165;28;20026;-76
2023/08/17 04:11:39;;;;;;;3.83;0.80;;;17.70;89.20;;;;;;5015816;28;20038;-76
2023/08/17 04:14:05;;;;;;;3.20;1.05;;;17.60;89.40;;;;;;5014417;28;20033;-76
2023/08/17 04:16:31;;;;;;;2.47;0.82;;;17.60;89.50;;;;;;4998210;28;20065;-75
2023/08/17 04:18:57;;;;;;;4.95;1.38;;;17.60;89.50;;;;;;5015659;28;20030;-76
2023/08/17 04:21:23;;;;;;;4.75;1.13;;;17.50;89.60;;;;;;4997851;28;20026;-76
2023/08/17 04:23:48;;;;;;;4.40;1.40;;;17.50;89.80;;;;;;5015493;28;20104;-76
2023/08/17 04:26:14;;;;;;;8.20;1.42;;;17.50;89.70;;;;;;4997875;28;20406;-76
2023/08/17 04:28:39;;;;;;;8.25;1.33;;;17.40;89.70;;;;;;4992867;28;20125;-75
2023/08/17 04:31:05;;;;;;;4.97;1.23;;;17.40;90.20;;;;;;5006011;28;20032;-75
2023/08/17 04:33:31;;;;;;;4.30;1.00;;;17.40;90.00;;;;;;4997770;28;20427;-76
2023/08/17 04:35:58;;;;;;;5.38;1.20;;;17.40;90.00;;;;;;4997617;28;20112;-76
2023/08/17 04:38:25;;;;;;;3.38;0.80;;;17.40;90.20;;;;;;5013881;28;20037;-76
2023/08/17 04:40:50;;;;;;;4.88;1.27;;;17.40;90.50;;;;;;5013893;28;20121;-75
2023/08/17 04:43:16;;;;;;;3.17;1.00;;;17.40;90.20;;;;;;4997764;28;20482;-75
2023/08/17 04:45:41;;;;;;;2.55;0.85;;;17.40;90.30;;;;;;4997577;28;20121;-76
2023/08/17 04:48:07;;;;;;;3.38;0.80;;;17.40;90.20;;;;;;4996652;28;20087;-76
2023/08/17 04:50:33;;;;;;;2.70;0.88;;;17.40;90.30;;;;;;5013593;28;20133;-76
2023/08/17 04:52:59;;;;;;;5.55;1.15;;;17.40;90.30;;;;;;5048928;28;20129;-78
2023/08/17 04:55:24;;;;;;;3.35;0.85;;;17.40;90.30;;;;;;5000818;28;20076;-79
2023/08/17 04:57:50;;;;;;;6.53;1.17;;;17.40;90.40;;;;;;5000642;28;20071;-78
2023/08/17 05:00:16;;;;;;;5.70;1.20;;;17.40;90.50;;;;;;5016838;28;20105;-78
2023/08/17 05:02:42;;;;;;;5.97;1.20;;;17.40;90.50;;;;;;5016656;28;20034;-79
2023/08/17 05:05:10;;;;;;;2.58;1.15;;;17.40;90.50;;;;;;5016812;28;20033;-79
2023/08/17 05:07:36;;;;;;;2.40;0.80;;;17.40;90.50;;;;;;5034460;28;20148;-78
2023/08/17 05:10:02;;;;;;;6.78;1.40;;;17.40;90.50;;;;;;5000242;28;20116;-78
2023/08/17 05:12:28;;;;;;;5.85;1.02;;;17.40;90.70;;;;;;5016888;28;20435;-79
2023/08/17 05:14:53;;;;;;;4.43;0.93;;;17.40;90.70;;;;;;5000294;28;20022;-79
2023/08/17 05:17:19;;;;;;;4.88;0.90;;;17.40;90.60;;;;;;5000296;28;20041;-79
2023/08/17 05:19:45;;;;;;;2.47;0.77;;;17.40;90.70;;;;;;5016503;28;20369;-79
2023/08/17 05:22:13;;;;;;;3.33;0.80;;;17.40;90.70;;;;;;5016529;28;20401;-79
2023/08/17 05:24:39;;;;;;;6.20;1.00;;;17.50;90.70;;;;;;5034066;28;20057;-78
2023/08/17 05:27:05;;;;;;;4.43;0.98;;;17.50;90.70;;;;;;5034157;28;20083;-78
2023/08/17 05:29:33;;;;;;;6.13;0.90;;;17.50;90.60;;;;;;5016369;28;20449;-79
2023/08/17 05:31:59;;;;;;;7.53;1.00;;;17.50;90.80;;;;;;5016320;28;20473;-78
2023/08/17 05:34:24;;;;;;;3.25;0.88;;;17.50;90.70;;;;;;5016487;28;20199;-78
2023/08/17 05:36:50;;;;;;;4.88;0.73;;;17.60;90.70;;;;;;4999876;28;20112;-78
2023/08/17 05:39:16;;;;;;;7.55;0.98;;;17.60;90.70;;;;;;5016301;28;20045;-78
2023/08/17 05:41:41;;;;;;;5.03;0.90;;;17.60;90.70;;;;;;4999979;28;20120;-78
2023/08/17 05:44:07;;;;;;;2.33;0.90;;;17.60;90.70;;;;;;5016106;28;20128;-78
2023/08/17 05:46:33;;;;;;;6.97;0.98;;;17.60;90.60;;;;;;5033636;28;20452;-78
2023/08/17 05:49:00;;;;;;;3.30;0.75;;;17.70;90.70;;;;;;4999553;28;20061;-78
2023/08/17 05:51:26;;;;;;;2.63;0.60;;;17.70;90.70;;;;;;4999404;28;20054;-78
2023/08/17 05:53:51;;;;;;;2.30;1.02;;;17.70;90.70;;;;;;5016245;28;20087;-78
2023/08/17 05:56:17;;;;;;;4.13;1.00;;;17.80;90.80;;;;;;5016030;28;20029;-78
2023/08/17 05:58:42;;;;;;;2.28;0.80;;;17.80;90.80;;;;;;5033664;28;20049;-78
2023/08/17 06:01:10;;;;;;;3.85;0.82;;;17.80;90.80;;;;;;5015929;28;20022;-79
2023/08/17 06:03:36;;;;;;;2.90;0.80;;;17.90;90.90;;;;;;5016158;28;20033;-79
2023/08/17 06:06:05;;;;;;;8.00;1.20;;;18.00;90.80;;;;;;5015789;28;20016;-79
2023/08/17 06:08:31;;;;;;;3.40;0.95;;;18.00;90.80;;;;;;5015803;28;20026;-78
2023/08/17 06:10:57;;;;;;;3.38;1.00;;;18.10;90.90;;;;;;5015776;28;20083;-79
2023/08/17 06:13:22;;;;;;;3.88;0.98;;;18.20;90.90;;;;;;4999379;28;20021;-78
2023/08/17 06:15:48;;;;;;;3.72;1.10;;;18.20;90.80;;;;;;5015811;28;20053;-78
2023/08/17 06:18:14;;;;;;;3.47;1.08;;;18.30;90.90;;;;;;5015696;28;20108;-79
2023/08/17 06:20:40;;;;;;;3.58;0.98;;;18.40;90.80;;;;;;5033215;28;20542;-79
2023/08/17 06:23:05;;;;;;;5.15;1.35;;;18.40;90.80;;;;;;4999169;28;20067;-78
2023/08/17 06:25:31;;;;;;;5.28;1.20;;;18.50;90.60;;;;;;4999161;28;20116;-79
2023/08/17 06:27:56;;;;;;;3.35;0.60;;;18.60;90.60;;;;;;4999374;28;20037;-78
2023/08/17 06:30:22;;;;;;;4.22;0.95;;;18.60;90.60;;;;;;4999195;28;20045;-78
2023/08/17 06:32:50;;;;;;;5.32;0.80;;;18.70;90.50;;;;;;5018233;28;20029;-79
2023/08/17 06:35:16;;;;;;;4.38;0.77;;;18.70;90.40;;;;;;5037313;28;20021;-78
2023/08/17 06:37:41;;;;;;;3.72;0.95;;;18.80;90.40;;;;;;5003066;28;20087;-78
2023/08/17 06:40:11;;;;;;;4.00;0.80;;;18.80;90.30;;;;;;5003128;28;20033;-78
2023/08/17 06:42:36;;;;;;;8.23;1.48;;;18.90;90.20;;;;;;5019369;28;20469;-79
2023/08/17 06:45:03;;;;;;;2.58;0.70;;;18.90;90.00;;;;;;5003081;28;20027;-78
2023/08/17 06:47:29;;;;;;;5.28;0.80;;;19.00;90.00;;;;;;5019267;28;20112;-79
2023/08/17 06:49:57;;;;;;;4.03;1.10;;;19.00;89.80;;;;;;5019379;28;20108;-79
2023/08/17 06:52:23;;;;;;;3.92;1.00;;;19.00;89.40;;;;;;5036774;28;20137;-78
2023/08/17 06:54:49;;;;;;;4.10;1.08;;;19.00;89.20;;;;;;5002809;28;20052;-78
2023/08/17 06:57:14;;;;;;;2.70;1.08;;;19.10;89.00;;;;;;5002605;28;20025;-79
2023/08/17 06:59:40;;;;;;;2.22;0.80;;;19.10;88.90;;;;;;5016400;28;20084;-78
2023/08/17 07:02:06;;;;;;;2.85;0.75;;;19.10;88.90;;;;;;4984714;28;20394;-79
2023/08/17 07:04:31;;;;;;;4.93;1.13;;;19.20;88.80;;;;;;5016624;28;20433;-79
2023/08/17 07:06:57;;;;;;;3.55;0.80;;;19.20;88.60;;;;;;4999414;28;20034;-79
2023/08/17 07:09:23;;;;;;;4.03;0.85;;;19.30;88.70;;;;;;4999401;28;20041;-79
2023/08/17 07:11:48;;;;;;;4.45;0.98;;;19.30;88.60;;;;;;4983281;28;20031;-79
2023/08/17 07:14:14;;;;;;;4.07;0.80;;;19.40;88.40;;;;;;4982927;28;20021;-79
2023/08/17 07:16:39;;;;;;;4.82;0.95;;;19.40;88.10;;;;;;4983031;28;20029;-79
2023/08/17 07:19:05;;;;;;;5.43;1.00;;;19.50;87.90;;;;;;5016552;28;20083;-79
2023/08/17 07:21:31;;;;;;;4.15;0.80;;;19.50;87.80;;;;;;4982821;28;20470;-79
2023/08/17 07:23:56;;;;;;;4.50;0.70;;;19.50;87.70;;;;;;4998941;28;20026;-79
2023/08/17 07:26:22;;;;;;;7.38;1.65;;;19.60;87.40;;;;;;5015324;28;20030;-79
2023/08/17 07:28:48;;;;;;;5.95;1.00;;;19.60;87.30;;;;;;4982791;28;20030;-79
2023/08/17 07:31:14;;;;;;;7.05;1.00;;;19.70;87.20;;;;;;4998985;28;20076;-78
2023/08/17 07:33:41;;;;;;;6.38;1.52;;;19.70;87.10;;;;;;5015069;28;20536;-79
2023/08/17 07:36:07;;;;;;;6.38;1.13;;;19.70;87.00;;;;;;4982636;28;20034;-78
2023/08/17 07:38:32;;;;;;;5.88;1.10;;;19.70;86.90;;;;;;4999029;28;20502;-79
2023/08/17 07:40:58;;;;;;;5.82;1.02;;;19.80;86.80;;;;;;4982506;28;20037;-78
2023/08/17 07:43:24;;;;;;;6.65;1.35;;;19.80;86.70;;;;;;4997311;28;20076;-79
2023/08/17 07:45:54;;;;;;;3.47;1.00;;;19.80;86.60;;;;;;4982568;28;20038;-79
2023/08/17 07:48:20;;;;;;;4.68;1.00;;;19.80;86.80;;;;;;4982293;28;20041;-79
2023/08/17 07:50:52;;;;;;;7.13;1.15;;;19.80;86.90;;;;;;4998541;28;20417;-79
2023/08/17 07:53:18;;;;;;;6.80;1.20;;;19.70;86.90;;;;;;4982241;28;20129;-79
2023/08/17 07:55:44;;;;;;;4.75;1.02;;;19.80;87.10;;;;;;4998575;28;20026;-79
2023/08/17 07:58:10;;;;;;;4.10;1.02;;;19.90;87.10;;;;;;4982376;28;20033;-79
2023/08/17 08:00:35;;;;;;;4.38;1.10;;;19.90;87.00;;;;;;5016165;28;20034;-80
2023/08/17 08:03:01;;;;;;;3.17;0.93;;;19.90;86.80;;;;;;5014567;28;20462;-79
2023/08/17 08:05:27;;;;;;;6.38;1.30;;;20.00;86.90;;;;;;5015752;28;20041;-79
2023/08/17 08:07:53;;;;;;;3.55;0.88;;;20.00;86.90;;;;;;5014565;28;20026;-79
2023/08/17 08:10:18;;;;;;;3.50;0.88;;;20.10;86.80;;;;;;4997969;28;20549;-79
2023/08/17 08:12:44;;;;;;;5.82;1.23;;;20.20;86.70;;;;;;4998240;28;20387;-79
2023/08/17 08:15:10;;;;;;;3.88;0.95;;;20.10;86.60;;;;;;4998012;28;20069;-78
2023/08/17 08:17:35;;;;;;;6.97;1.38;;;20.10;86.50;;;;;;4982614;28;20036;-78
2023/08/17 08:20:01;;;;;;;5.50;1.00;;;20.10;86.40;;;;;;4981839;28;20041;-79
2023/08/17 08:22:27;;;;;;;3.22;0.90;;;20.10;86.60;;;;;;4997877;28;20028;-79
2023/08/17 08:24:53;;;;;;;5.80;1.00;;;20.10;86.60;;;;;;4981760;28;20129;-79
2023/08/17 08:27:18;;;;;;;4.28;0.80;;;20.10;86.80;;;;;;4981710;28;20032;-79
2023/08/17 08:29:44;;;;;;;6.78;1.35;;;20.10;86.80;;;;;;4997850;28;20045;-79
2023/08/17 08:32:10;;;;;;;4.30;1.00;;;20.20;86.80;;;;;;4981910;28;20477;-80
2023/08/17 08:34:35;;;;;;;3.45;1.02;;;20.20;86.50;;;;;;4981614;28;20125;-79
2023/08/17 08:37:01;;;;;;;3.50;1.08;;;20.20;86.40;;;;;;4997579;28;20117;-79
2023/08/17 08:39:27;;;;;;;3.65;0.82;;;20.20;86.40;;;;;;4981615;28;20061;-79
2023/08/17 08:41:53;;;;;;;4.57;1.10;;;20.20;86.40;;;;;;4981690;28;20478;-79
2023/08/17 08:44:19;;;;;;;6.03;1.98;;;20.20;86.30;;;;;;5013913;28;20038;-79
2023/08/17 08:46:45;;;;;;;4.07;1.30;;;20.30;86.40;;;;;;4997382;28;20052;-79
2023/08/17 08:49:12;;;;;;;4.72;1.33;;;20.30;86.20;;;;;;4981191;28;20092;-79
2023/08/17 08:51:51;;;;;;;3.92;1.05;;;20.30;86.10;;;;;;4997074;28;20092;-79
2023/08/17 08:54:27;;;;;;;5.25;1.33;;;20.30;86.00;;;;;;5014508;28;20010;-79
2023/08/17 08:57:01;;;;;;;5.75;1.58;;;20.30;85.90;;;;;;4997412;28;20021;-79
2023/08/17 08:59:28;;;;;;;4.78;1.23;;;20.40;85.90;;;;;;5014897;28;20569;-79
2023/08/17 09:01:56;;;;;;;5.50;1.35;;;20.30;85.80;;;;;;5013364;28;20359;-78
2023/08/17 09:04:23;;;;;;;6.15;1.65;;;20.40;85.90;;;;;;4981213;28;20112;-79
2023/08/17 09:06:50;;;;;;;5.63;1.65;;;20.40;85.80;;;;;;4981208;28;20482;-78
2023/08/17 09:09:17;;;;;;;4.95;1.55;;;20.40;85.80;;;;;;4997268;28;20552;-79
2023/08/17 09:11:43;;;;;;;4.68;1.48;;;20.40;85.90;;;;;;5014638;28;20482;-79
2023/08/17 09:14:09;;;;;;;4.28;1.50;;;20.50;85.90;;;;;;4980620;28;20117;-79
2023/08/17 09:16:36;;;;;;;3.80;1.30;;;20.50;85.80;;;;;;4996850;28;20025;-79
2023/08/17 09:19:01;;;;;;;5.93;1.90;;;20.50;85.80;;;;;;4997082;28;20041;-79
2023/08/17 09:21:31;;;;;;;5.15;1.30;;;20.50;86.30;;;;;;4996862;28;20601;-79
2023/08/17 09:23:57;;;;;;;6.22;2.17;;;20.50;85.70;;;;;;5014364;28;20022;-79
2023/08/17 09:26:23;;;;;;;6.85;2.58;;;20.50;85.60;;;;;;5014213;28;20022;-78
2023/08/17 09:28:50;;;;;;;7.15;2.50;;;20.60;85.60;;;;;;4996589;28;20540;-79
2023/08/17 09:31:16;;;;;;;8.20;2.55;;;20.60;85.60;;;;;;4996627;28;20026;-78
2023/08/17 09:33:41;;;;;;;5.50;2.03;;;20.50;85.50;;;;;;5013935;28;20379;-77
2023/08/17 09:36:11;;;;;;;4.70;2.08;;;20.60;85.70;;;;;;4980096;28;20030;-77
2023/08/17 09:38:38;;;;;;;6.82;2.50;;;20.70;85.80;;;;;;5014255;28;20026;-77
2023/08/17 09:41:05;;;;;;;11.93;2.42;;;20.70;85.80;;;;;;4996601;28;20525;-77
2023/08/17 09:43:33;;;;;;;6.15;2.30;;;20.80;85.80;;;;;;5013975;28;20030;-77
2023/08/17 09:46:01;;;;;;;10.10;2.45;;;20.80;85.70;;;;;;5013819;28;20030;-77
2023/08/17 09:48:27;;;;;;;7.18;2.50;;;20.90;85.70;;;;;;4980813;28;20172;-78
2023/08/17 09:50:56;;;;;;;8.75;2.22;;;20.90;85.50;;;;;;4996051;28;20026;-77
2023/08/17 09:53:22;;;;;;;6.35;2.08;;;21.00;85.50;;;;;;4996428;28;20029;-77
2023/08/17 09:55:48;;;;;;;7.13;2.45;;;21.10;85.40;;;;;;5013940;28;20022;-78
2023/08/17 09:58:15;;;;;;;6.88;2.08;;;21.10;85.30;;;;;;4980208;28;20026;-77
2023/08/17 10:00:50;;;;;;;9.50;3.22;;;21.20;85.30;;;;;;4996112;28;20142;-78
2023/08/17 10:03:17;;;;;;;6.47;2.22;;;21.30;84.80;;;;;;4996212;28;20045;-77
2023/08/17 10:05:47;;;;;;;5.35;2.38;;;21.30;84.00;;;;;;4979691;28;20034;-77
2023/08/17 10:08:19;;;;;;;6.93;2.58;;;21.30;83.90;;;;;;5012084;28;20139;-77
2023/08/17 10:10:45;;;;;;;7.25;2.70;;;21.40;84.00;;;;;;4996010;28;20053;-78
2023/08/17 10:13:54;;;;;;;5.80;2.28;;;21.50;83.80;;;;;;4996056;28;20436;-78
2023/08/17 10:16:49;;;;;;;4.20;2.15;;;21.50;83.70;;;;;;4937016;29;20089;-77
2023/08/17 10:19:22;;;;;;;7.10;2.70;;;21.50;83.70;;;;;;4937187;29;20118;-77
2023/08/17 10:22:03;;;;;;;6.87;2.33;;;21.50;83.70;;;;;;4996269;28;20045;-80
2023/08/17 10:24:33;;;;;;;4.65;2.30;;;21.50;83.80;;;;;;5013548;28;20058;-79
2023/08/17 10:26:59;;;;;;;7.38;2.67;;;21.50;83.70;;;;;;4980313;28;20503;-79
2023/08/17 10:29:26;;;;;;;5.30;2.28;;;21.50;83.60;;;;;;4979712;28;20493;-80
2023/08/17 10:31:52;;;;;;;8.07;2.85;;;21.60;83.60;;;;;;4979493;28;20394;-79
2023/08/17 10:34:19;;;;;;;5.13;2.10;;;21.50;83.40;;;;;;5012188;28;20121;-79
2023/08/17 10:36:46;;;;;;;6.82;2.33;;;21.60;83.50;;;;;;5013335;28;20027;-79
2023/08/17 10:39:20;;;;;;;8.75;3.28;;;21.60;83.50;;;;;;4995703;28;20029;-79
2023/08/17 10:41:48;;;;;;;6.80;2.55;;;21.60;83.30;;;;;;4995705;28;20129;-78
2023/08/17 10:44:13;;;;;;;7.05;2.35;;;21.60;83.20;;;;;;4979683;28;20030;-78
2023/08/17 10:46:40;;;;;;;8.63;2.78;;;21.60;83.10;;;;;;4995727;28;20030;-78
2023/08/17 10:49:24;;;;;;;6.97;2.53;;;21.60;83.00;;;;;;4995816;28;20046;-78
2023/08/17 10:52:07;;;;;;;7.82;2.80;;;21.60;83.10;;;;;;5013435;28;20100;-78
2023/08/17 10:54:41;;;;;;;6.88;2.53;;;21.70;83.20;;;;;;4995895;28;20037;-78
2023/08/17 10:57:25;;;;;;;6.20;2.42;;;21.80;83.10;;;;;;5013162;28;20022;-79
2023/08/17 11:00:31;;;;;;;6.03;2.22;;;21.90;82.90;;;;;;5011914;28;20115;-78
2023/08/17 11:03:07;;;;;;;5.78;2.35;;;22.00;82.90;;;;;;4995517;28;20475;-78
2023/08/17 11:05:49;;;;;;;8.88;2.65;;;22.10;82.80;;;;;;4995606;28;20026;-78
2023/08/17 11:08:31;;;;;;;7.95;2.78;;;22.20;82.40;;;;;;5013028;28;20014;-78
2023/08/17 11:11:15;;;;;;;8.70;3.63;;;22.20;81.60;;;;;;5012903;28;20060;-78
2023/08/17 11:13:43;;;;;;;8.23;2.78;;;22.20;81.10;;;;;;4979185;28;20029;-78
2023/08/17 11:16:10;;;;;;;8.63;2.92;;;22.10;81.20;;;;;;4995630;28;20085;-78
2023/08/17 11:18:35;;;;;;;6.38;2.60;;;22.10;81.40;;;;;;4981507;28;20030;-78
2023/08/17 11:21:06;;;;;;;5.53;2.92;;;22.10;81.70;;;;;;4999076;28;20030;-78
2023/08/17 11:23:34;;;;;;;6.25;1.98;;;22.10;81.70;;;;;;4999192;28;20029;-78
2023/08/17 11:26:00;;;;;;;12.85;2.40;;;22.20;81.80;;;;;;4982830;28;20022;-78
2023/08/17 11:28:26;;;;;;;7.95;2.55;;;22.30;81.80;;;;;;4982662;28;20041;-77
2023/08/17 11:30:59;;;;;;;6.10;2.42;;;22.20;81.60;;;;;;4982585;28;20112;-78
2023/08/17 11:33:26;;;;;;;8.20;2.55;;;22.30;81.60;;;;;;4998911;28;20044;-78
2023/08/17 11:35:57;;;;;;;5.18;2.33;;;22.30;81.60;;;;;;4982394;28;20473;-78
2023/08/17 11:38:23;;;;;;;7.30;2.40;;;22.30;81.60;;;;;;5016335;28;20036;-78
2023/08/17 11:40:52;;;;;;;6.78;2.60;;;22.30;81.60;;;;;;4999072;28;20038;-78
2023/08/17 11:43:20;;;;;;;5.07;2.13;;;22.40;81.40;;;;;;4998813;28;20481;-79
2023/08/17 11:45:46;;;;;;;6.13;2.75;;;22.40;81.30;;;;;;4998542;28;20178;-78
2023/08/17 11:48:11;;;;;;;5.93;2.63;;;22.40;81.00;;;;;;4982516;28;20022;-78
2023/08/17 11:50:39;;;;;;;5.93;2.42;;;22.40;80.80;;;;;;4998594;28;20105;-78
2023/08/17 11:53:05;;;;;;;4.97;2.28;;;22.30;80.60;;;;;;4978908;28;20046;-78
2023/08/17 11:55:31;;;;;;;7.47;2.50;;;22.30;80.40;;;;;;4995255;28;20045;-78
2023/08/17 11:57:56;;;;;;;5.97;2.13;;;22.30;80.50;;;;;;5011798;28;20129;-78
2023/08/17 12:00:22;;;;;;;6.13;2.70;;;22.20;80.50;;;;;;4995031;28;20058;-78
2023/08/17 12:02:52;;;;;;;6.55;2.33;;;22.20;80.80;;;;;;4994892;28;20025;-78
2023/08/17 12:05:23;;;;;;;6.97;2.22;;;22.20;81.00;;;;;;4994869;28;20031;-78
2023/08/17 12:07:49;;;;;;;5.90;2.28;;;22.20;81.20;;;;;;4994889;28;20022;-78
2023/08/17 12:10:15;;;;;;;5.80;1.90;;;22.20;81.20;;;;;;5011252;28;20117;-78
2023/08/17 12:12:40;;;;;;;6.03;2.10;;;22.30;81.30;;;;;;4995011;28;20497;-78
2023/08/17 12:15:06;;;;;;;5.45;2.08;;;22.30;81.30;;;;;;4994793;28;20061;-79
2023/08/17 12:17:32;;;;;;;4.88;2.05;;;22.30;81.30;;;;;;4994704;28;20038;-78
2023/08/17 12:19:59;;;;;;;5.90;2.20;;;22.30;81.40;;;;;;4994827;28;20026;-78
2023/08/17 12:22:26;;;;;;;7.78;2.55;;;22.30;81.40;;;;;;5010997;28;20117;-77
2023/08/17 12:24:52;;;;;;;6.32;2.20;;;22.30;81.40;;;;;;5011060;28;20038;-78
2023/08/17 12:27:18;;;;;;;7.00;2.10;;;22.30;81.60;;;;;;4994644;28;20022;-78
2023/08/17 12:29:51;;;;;;;6.28;2.10;;;22.20;81.50;;;;;;5010256;28;20037;-78
2023/08/17 12:32:18;;;;;;;4.18;2.28;;;22.30;81.70;;;;;;5011199;28;20031;-78
2023/08/17 12:34:44;;;;;;;5.72;2.17;;;22.30;81.70;;;;;;4994429;28;20053;-78
2023/08/17 12:37:10;;;;;;;6.05;2.53;;;22.30;82.30;;;;;;4994321;28;20030;-78
2023/08/17 12:39:37;;;;;;;6.25;2.08;;;22.40;81.60;;;;;;4994344;28;20037;-78
2023/08/17 12:42:03;;;;;;;5.05;2.55;;;22.40;81.50;;;;;;4994266;28;20030;-77
2023/08/17 12:44:29;;;;;;;6.05;2.40;;;22.40;81.50;;;;;;4995671;28;20026;-78